^^
Meteo Knjazevac Station Historical Data
Daily Summary for July 6, 2021 Units:  English    Metric   Both
Daily Weekly Monthly Yearly Custom
  High: Low: Average:
Temperature: 61.3 °F 51.1 °F 56.4 °F
Dew Point: 47.4 °F 44.1 °F 46.3 °F
Humidity: 77% 59% 69%
Wind Speed: 8mph 0mph 2.9mph
Wind Gust: 12mph - -
Wind- - SW
Pressure: 30.03 in 29.90 in -
Precipitation: 0.00 in    
Historical Graphs
 
 
Tabular Data for July 6, 2021
Time Temperature Dew Point Pressure Wind Wind Speed Wind Gust Humidity Rainfall Rate (Hourly) solar Conditions
01:10 61.3 °F 46.9 °F 29.90 in Calm   3 mph 59% 0.00 in 0 W/m2
01:20 60.8 °F 46.8 °F 29.90 in WSW 1 mph 5 mph 60% 0.00 in 0 W/m2
01:30 60.6 °F 46.7 °F 29.91 in WNW 1 mph 5 mph 60% 0.00 in 0 W/m2
01:40 60.4 °F 46.5 °F 29.91 in NW 1 mph 5 mph 60% 0.00 in 0 W/m2
01:50 60.4 °F 47.4 °F 29.92 in NNW 5 mph 9 mph 62% 0.00 in 0 W/m2
02:00 60.4 °F 47.4 °F 29.91 in WSW 2 mph 6 mph 62% 0.00 in 0 W/m2
02:10 60.3 °F 47.2 °F 29.92 in WSW 2 mph 4 mph 62% 0.00 in 0 W/m2
02:20 60.1 °F 47 °F 29.92 in Calm   5 mph 62% 0.00 in 0 W/m2
02:30 59.9 °F 47.3 °F 29.92 in WNW 1 mph 6 mph 63% 0.00 in 0 W/m2
02:40 59.7 °F 47.1 °F 29.92 in North 2 mph 2 mph 63% 0.00 in 0 W/m2
02:50 59.5 °F 46.9 °F 29.93 in NE 3 mph 5 mph 63% 0.00 in 0 W/m2
03:00 59.4 °F 46.8 °F 29.93 in NE 2 mph 5 mph 63% 0.00 in 0 W/m2
03:10 59 °F 46.8 °F 29.93 in Calm   2 mph 64% 0.00 in 0 W/m2
03:20 58.7 °F 46.5 °F 29.93 in Calm   3 mph 64% 0.00 in 0 W/m2
03:30 57.9 °F 47 °F 29.93 in Calm   3 mph 67% 0.00 in 0 W/m2
03:40 57.4 °F 46.9 °F 29.94 in NNE 1 mph 3 mph 68% 0.00 in 0 W/m2
03:50 57 °F 46.9 °F 29.94 in Calm   3 mph 69% 0.00 in 0 W/m2
04:00 56.5 °F 46.4 °F 29.94 in Calm   2 mph 69% 0.00 in 0 W/m2
04:10 55.8 °F 46.1 °F 29.94 in North 1 mph 4 mph 70% 0.00 in 0 W/m2
04:20 55.2 °F 46.4 °F 29.95 in NW 1 mph 3 mph 72% 0.00 in 0 W/m2
04:30 54.7 °F 46.2 °F 29.96 in WSW 3 mph 5 mph 73% 0.00 in 0 W/m2
04:40 54.1 °F 46 °F 29.96 in WSW 5 mph 7 mph 74% 0.00 in 0 W/m2
04:50 54.5 °F 46.7 °F 29.97 in SW 7 mph 11 mph 75% 0.00 in 0 W/m2
05:00 54.5 °F 46.7 °F 29.97 in SW 5 mph 8 mph 75% 0.00 in 0 W/m2
05:10 54.1 °F 46.4 °F 29.98 in SW 5 mph 8 mph 75% 0.00 in 0 W/m2
05:20 53.6 °F 45.9 °F 29.98 in SW 5 mph 9 mph 75% 0.00 in 4 W/m2
05:30 53.2 °F 45.5 °F 29.99 in WSW 3 mph 8 mph 75% 0.00 in 10 W/m2
05:40 52.9 °F 45.9 °F 30.00 in SW 3 mph 8 mph 77% 0.00 in 18 W/m2
05:50 52.5 °F 45.5 °F 30.01 in West 6 mph 9 mph 77% 0.00 in 24 W/m2
06:00 52.2 °F 45.2 °F 30.01 in WSW 6 mph 12 mph 77% 0.00 in 16 W/m2
06:10 52.2 °F 45.2 °F 30.01 in WSW 5 mph 10 mph 77% 0.00 in 21 W/m2
06:20 52 °F 45 °F 30.02 in WSW 6 mph 8 mph 77% 0.00 in 37 W/m2
06:30 51.6 °F 44.6 °F 30.02 in WSW 8 mph 12 mph 77% 0.00 in 69 W/m2
06:40 51.3 °F 44.3 °F 30.03 in WSW 8 mph 12 mph 77% 0.00 in 69 W/m2
06:50 51.1 °F 44.1 °F 30.03 in WSW 5 mph 12 mph 77% 0.00 in 161 W/m2
Knjazevac, Serbia
Compliments of Weather Underground - 2 mb